Time;durP1;ratioP1;P1;durP2;ratioP2;P2;SDS_P1;SDS_P2;PMS_P1;PMS_P2;Temp;Humidity;BMP_temperature;BMP_pressure;BME280_temperature;BME280_humidity;BME280_pressure;Samples;Min_cycle;Max_cycle;Signal;HPM_P1;HPM_P2
2021/08/11 00:00:23;;;;;;;11.10;6.43;;;17.70;99.90;;;;;;5076198;28;20257;-82
2021/08/11 00:02:49;;;;;;;13.10;6.57;;;17.70;99.90;;;;;;5091021;28;20210;-82
2021/08/11 00:05:15;;;;;;;12.17;7.10;;;17.60;99.90;;;;;;5087619;28;20179;-82
2021/08/11 00:07:41;;;;;;;12.23;6.53;;;17.60;99.90;;;;;;5087196;28;20197;-82
2021/08/11 00:10:07;;;;;;;12.93;6.23;;;17.60;99.90;;;;;;5070309;28;20190;-82
2021/08/11 00:12:34;;;;;;;12.73;5.40;;;17.60;99.90;;;;;;5080529;28;20611;-82
2021/08/11 00:15:00;;;;;;;14.17;6.70;;;17.60;99.90;;;;;;5096085;28;20182;-82
2021/08/11 00:17:26;;;;;;;11.23;6.20;;;17.50;99.90;;;;;;5088983;28;20210;-81
2021/08/11 00:19:51;;;;;;;14.73;7.77;;;17.40;99.90;;;;;;5079732;28;20276;-82
2021/08/11 00:22:17;;;;;;;13.97;7.73;;;17.50;99.90;;;;;;5075270;28;20761;-82
2021/08/11 00:24:43;;;;;;;16.03;6.90;;;17.50;99.90;;;;;;5097252;28;20190;-82
2021/08/11 00:27:09;;;;;;;13.97;7.13;;;17.50;99.90;;;;;;5077973;28;20214;-82
2021/08/11 00:29:34;;;;;;;18.07;7.80;;;17.50;99.90;;;;;;5081660;28;20172;-82
2021/08/11 00:32:00;;;;;;;13.23;6.73;;;17.50;99.90;;;;;;5095338;28;20659;-82
2021/08/11 00:34:27;;;;;;;12.80;7.57;;;17.50;99.90;;;;;;5086198;28;20175;-82
2021/08/11 00:36:54;;;;;;;12.30;7.20;;;17.60;99.90;;;;;;5088882;28;20189;-82
2021/08/11 00:39:20;;;;;;;11.80;6.43;;;17.60;99.90;;;;;;5090672;28;20175;-82
2021/08/11 00:41:47;;;;;;;14.80;7.03;;;17.70;99.90;;;;;;5095742;28;20197;-82
2021/08/11 00:44:17;;;;;;;12.77;7.00;;;17.60;99.90;;;;;;5080755;28;20175;-82
2021/08/11 00:46:45;;;;;;;13.57;6.50;;;17.60;99.90;;;;;;5079452;28;20181;-82
2021/08/11 00:49:17;;;;;;;11.80;5.97;;;17.50;99.90;;;;;;5077365;28;20274;-82
2021/08/11 00:51:46;;;;;;;12.90;5.70;;;17.60;99.90;;;;;;5092731;28;20190;-82
2021/08/11 00:54:13;;;;;;;14.03;7.37;;;17.60;99.90;;;;;;5080516;28;20209;-81
2021/08/11 00:56:47;;;;;;;12.80;6.53;;;17.50;99.90;;;;;;5094613;28;20224;-82
2021/08/11 00:59:17;;;;;;;12.13;7.13;;;17.50;99.90;;;;;;5077703;28;20229;-81
2021/08/11 01:01:50;;;;;;;12.93;5.73;;;17.50;99.90;;;;;;5076849;28;20218;-82
2021/08/11 01:04:18;;;;;;;10.50;5.80;;;17.40;99.90;;;;;;5092784;28;20179;-82
2021/08/11 01:06:45;;;;;;;12.90;6.30;;;17.30;99.90;;;;;;5099431;28;20217;-82
2021/08/11 01:09:13;;;;;;;11.17;5.67;;;17.30;99.90;;;;;;5095230;28;20284;-82
2021/08/11 01:11:47;;;;;;;13.10;6.03;;;17.30;99.90;;;;;;5096064;28;20217;-82
2021/08/11 01:14:14;;;;;;;14.27;7.13;;;17.30;99.90;;;;;;5082039;28;20185;-82
2021/08/11 01:16:42;;;;;;;10.23;5.50;;;17.30;99.90;;;;;;5080763;28;20186;-82
2021/08/11 01:19:07;;;;;;;9.10;4.60;;;17.20;99.90;;;;;;5079092;28;20521;-82
2021/08/11 01:21:53;;;;;;;13.07;6.13;;;17.10;99.90;;;;;;5090070;28;20360;-82
2021/08/11 01:24:28;;;;;;;11.50;5.80;;;17.10;99.90;;;;;;5092911;28;20179;-82
2021/08/11 01:27:37;;;;;;;12.60;5.40;;;17.00;99.90;;;;;;5075132;28;20245;-81
2021/08/11 01:30:23;;;;;;;10.07;5.10;;;17.10;99.90;;;;;;5094967;28;20191;-81
2021/08/11 01:32:58;;;;;;;12.10;5.33;;;17.10;99.90;;;;;;5076308;28;20249;-81
2021/08/11 01:35:40;;;;;;;14.63;6.60;;;17.10;99.90;;;;;;5097613;28;20200;-81
2021/08/11 01:38:14;;;;;;;13.30;6.73;;;17.30;99.90;;;;;;5077224;28;20597;-82
2021/08/11 01:40:55;;;;;;;17.53;6.57;;;17.50;99.90;;;;;;5069064;28;20228;-82
2021/08/11 01:43:25;;;;;;;14.87;7.77;;;17.50;99.90;;;;;;5092190;28;20225;-82
2021/08/11 01:45:53;;;;;;;14.33;7.43;;;17.50;99.90;;;;;;5112770;28;20171;-81
2021/08/11 01:48:27;;;;;;;17.63;7.53;;;17.40;99.90;;;;;;5089342;28;20268;-81
2021/08/11 01:50:57;;;;;;;13.53;7.17;;;17.40;99.90;;;;;;5090950;28;20182;-81
2021/08/11 01:53:25;;;;;;;14.63;7.93;;;17.40;99.90;;;;;;5093926;28;20181;-81
2021/08/11 01:55:57;;;;;;;16.37;7.90;;;17.30;99.90;;;;;;5077779;28;20202;-82
2021/08/11 01:58:30;;;;;;;14.87;8.10;;;17.40;99.90;;;;;;5078191;28;20174;-82
2021/08/11 02:00:59;;;;;;;16.00;8.10;;;17.50;99.90;;;;;;5076849;28;20221;-81
2021/08/11 02:03:27;;;;;;;15.03;8.00;;;17.50;99.90;;;;;;5109189;28;20196;-82
2021/08/11 02:05:55;;;;;;;14.63;7.20;;;17.50;99.90;;;;;;5089164;28;20175;-80
2021/08/11 02:08:23;;;;;;;14.97;7.93;;;17.30;99.90;;;;;;5090865;28;20560;-82
2021/08/11 02:10:54;;;;;;;14.30;7.50;;;17.20;99.90;;;;;;5078264;28;20277;-81
2021/08/11 02:13:21;;;;;;;16.13;7.83;;;17.20;99.90;;;;;;5076321;28;20181;-81
2021/08/11 02:15:49;;;;;;;17.53;8.00;;;17.10;99.90;;;;;;5078103;28;20186;-82
2021/08/11 02:18:17;;;;;;;13.90;7.70;;;17.00;99.90;;;;;;5089819;28;20177;-82
2021/08/11 02:20:43;;;;;;;16.87;8.23;;;16.90;99.90;;;;;;5071394;28;20593;-82
2021/08/11 02:23:09;;;;;;;15.70;7.60;;;16.90;99.90;;;;;;5104841;27;20603;-81
2021/08/11 02:25:54;;;;;;;15.20;7.23;;;16.80;99.90;;;;;;5093090;28;20192;-82
2021/08/11 02:28:29;;;;;;;19.93;7.27;;;16.80;99.90;;;;;;5062348;28;20645;-81
2021/08/11 02:31:14;;;;;;;13.50;7.03;;;16.70;99.90;;;;;;5092557;28;20645;-82
2021/08/11 02:33:51;;;;;;;14.27;7.00;;;16.60;99.90;;;;;;5107681;28;20178;-81
2021/08/11 02:36:30;;;;;;;16.10;6.60;;;16.50;99.90;;;;;;5092735;28;20216;-82
2021/08/11 02:39:08;;;;;;;16.60;7.50;;;16.40;99.90;;;;;;5104070;28;20209;-82
2021/08/11 02:41:41;;;;;;;18.03;7.63;;;16.50;99.90;;;;;;5105653;28;20729;-82
2021/08/11 02:44:20;;;;;;;15.13;8.10;;;16.50;99.90;;;;;;5087350;28;20581;-81
2021/08/11 02:46:47;;;;;;;18.10;9.43;;;16.40;99.90;;;;;;5093830;28;20498;-81
2021/08/11 02:49:24;;;;;;;14.47;7.63;;;16.20;99.90;;;;;;5091927;28;20182;-82
2021/08/11 02:51:51;;;;;;;19.70;8.30;;;16.30;99.90;;;;;;5087713;28;20182;-82
2021/08/11 02:54:20;;;;;;;16.33;8.30;;;16.30;99.90;;;;;;5073090;28;20288;-82
2021/08/11 02:56:47;;;;;;;15.60;7.77;;;16.30;99.90;;;;;;5076132;28;20264;-82
2021/08/11 02:59:15;;;;;;;16.27;7.47;;;16.30;99.90;;;;;;5107935;27;20192;-82
2021/08/11 03:01:42;;;;;;;16.07;8.20;;;16.30;99.90;;;;;;5076895;28;20247;-83
2021/08/11 03:04:09;;;;;;;14.60;8.27;;;16.30;99.90;;;;;;5081073;28;20182;-82
2021/08/11 03:06:35;;;;;;;15.63;7.80;;;16.30;99.90;;;;;;5080300;28;20667;-82
2021/08/11 03:09:04;;;;;;;15.07;8.00;;;16.40;99.90;;;;;;5079644;28;20273;-82
2021/08/11 03:11:33;;;;;;;15.37;8.47;;;16.40;99.90;;;;;;5072844;28;20305;-82
2021/08/11 03:14:01;;;;;;;13.63;7.63;;;16.40;99.90;;;;;;5076178;28;20176;-82
2021/08/11 03:16:28;;;;;;;13.77;7.43;;;16.30;99.90;;;;;;5111524;28;20196;-82
2021/08/11 03:18:55;;;;;;;13.33;7.83;;;16.10;99.90;;;;;;5093865;28;20173;-82
2021/08/11 03:21:23;;;;;;;13.40;8.20;;;16.00;99.90;;;;;;5092235;28;20231;-82
2021/08/11 03:23:49;;;;;;;14.40;7.90;;;16.20;99.90;;;;;;5079370;28;20187;-82
2021/08/11 03:26:17;;;;;;;13.57;8.33;;;16.20;99.90;;;;;;5071812;28;20660;-82
2021/08/11 03:28:43;;;;;;;16.33;8.70;;;16.10;99.90;;;;;;5080479;28;20237;-82
2021/08/11 03:31:09;;;;;;;15.50;8.60;;;16.10;99.90;;;;;;5074715;28;20624;-82
2021/08/11 03:33:39;;;;;;;15.47;8.27;;;16.00;99.90;;;;;;5079986;28;20227;-82
2021/08/11 03:36:05;;;;;;;13.73;8.70;;;16.00;99.90;;;;;;5092133;28;20584;-82
2021/08/11 03:38:33;;;;;;;14.30;8.53;;;16.00;99.90;;;;;;5093490;28;20165;-82
2021/08/11 03:40:59;;;;;;;13.83;8.40;;;15.90;99.90;;;;;;5074322;28;20190;-82
2021/08/11 03:43:25;;;;;;;16.77;8.50;;;15.90;99.90;;;;;;5088552;28;20195;-83
2021/08/11 03:45:52;;;;;;;14.63;7.90;;;15.90;99.90;;;;;;5084769;28;20184;-82
2021/08/11 03:48:18;;;;;;;16.23;9.47;;;15.90;99.90;;;;;;5077944;28;20184;-82
2021/08/11 03:50:44;;;;;;;17.77;9.73;;;15.90;99.90;;;;;;5092118;28;20521;-82
2021/08/11 03:53:11;;;;;;;16.83;9.13;;;15.90;99.90;;;;;;5089985;28;20179;-83
2021/08/11 03:55:37;;;;;;;13.73;8.03;;;15.80;99.90;;;;;;5097459;28;20183;-83
2021/08/11 03:58:03;;;;;;;15.43;9.03;;;15.80;99.90;;;;;;5077293;28;20273;-83
2021/08/11 04:00:29;;;;;;;15.93;9.03;;;15.70;99.90;;;;;;5075479;28;20314;-82
2021/08/11 04:02:55;;;;;;;14.60;8.53;;;15.60;99.90;;;;;;5093880;28;20287;-83
2021/08/11 04:05:21;;;;;;;13.87;8.07;;;15.60;99.90;;;;;;5092960;28;20181;-83
2021/08/11 04:07:47;;;;;;;14.07;7.80;;;15.50;99.90;;;;;;5090024;28;20201;-83
2021/08/11 04:10:12;;;;;;;15.97;8.73;;;15.50;99.90;;;;;;5090104;28;20183;-83
2021/08/11 04:12:38;;;;;;;19.27;8.67;;;15.40;99.90;;;;;;5092363;28;20271;-83
2021/08/11 04:15:05;;;;;;;16.83;9.97;;;15.50;99.90;;;;;;5091921;28;20181;-82
2021/08/11 04:17:31;;;;;;;14.13;7.70;;;15.60;99.90;;;;;;5089889;28;20187;-83
2021/08/11 04:19:57;;;;;;;16.77;9.10;;;15.60;99.90;;;;;;5092325;28;20588;-82
2021/08/11 04:22:22;;;;;;;14.73;8.83;;;15.60;99.90;;;;;;5088984;28;20229;-83
2021/08/11 04:24:48;;;;;;;18.27;9.37;;;15.50;99.90;;;;;;5086956;28;20267;-83
2021/08/11 04:27:14;;;;;;;15.83;9.23;;;15.50;99.90;;;;;;5106197;28;20253;-82
2021/08/11 04:29:40;;;;;;;16.70;8.80;;;15.60;99.90;;;;;;5087510;28;20185;-83
2021/08/11 04:32:06;;;;;;;17.43;9.13;;;15.50;99.90;;;;;;5095234;28;20219;-82
2021/08/11 04:34:31;;;;;;;18.30;10.27;;;15.60;99.90;;;;;;5090074;28;20214;-82
2021/08/11 04:36:58;;;;;;;22.20;9.40;;;15.70;99.90;;;;;;5092804;28;20187;-83
2021/08/11 04:39:24;;;;;;;17.07;8.73;;;15.70;99.90;;;;;;5091211;28;20216;-84
2021/08/11 04:41:50;;;;;;;16.93;9.00;;;15.60;99.90;;;;;;5109003;28;20228;-84
2021/08/11 04:44:15;;;;;;;15.73;9.20;;;15.70;99.90;;;;;;5093216;28;20192;-84
2021/08/11 04:46:42;;;;;;;17.43;9.47;;;15.80;99.90;;;;;;5078376;28;20310;-84
2021/08/11 04:49:08;;;;;;;15.63;9.30;;;15.90;99.90;;;;;;5099131;28;20180;-84
2021/08/11 04:51:34;;;;;;;18.17;9.37;;;15.90;99.90;;;;;;5094113;28;20647;-84
2021/08/11 04:53:59;;;;;;;22.23;10.10;;;16.00;99.90;;;;;;5093151;28;20190;-83
2021/08/11 04:56:25;;;;;;;18.83;10.30;;;16.10;99.90;;;;;;5093630;28;20180;-83
2021/08/11 04:58:51;;;;;;;17.30;9.70;;;16.20;99.90;;;;;;5089586;28;20192;-84
2021/08/11 05:01:17;;;;;;;15.40;8.73;;;16.30;99.90;;;;;;5111668;28;20223;-84
2021/08/11 05:03:43;;;;;;;15.10;8.90;;;16.40;99.90;;;;;;5095447;28;20188;-84
2021/08/11 05:06:09;;;;;;;17.50;8.10;;;16.70;99.90;;;;;;5106463;28;20183;-84
2021/08/11 05:08:35;;;;;;;15.33;8.80;;;16.80;99.90;;;;;;5093480;28;20492;-83
2021/08/11 05:11:01;;;;;;;18.47;8.40;;;17.00;99.90;;;;;;5093376;28;20181;-83
2021/08/11 05:13:27;;;;;;;18.73;7.93;;;17.10;99.90;;;;;;5098965;28;20183;-83
2021/08/11 05:15:53;;;;;;;17.53;8.93;;;17.10;99.90;;;;;;5091604;28;20672;-83
2021/08/11 05:18:19;;;;;;;17.07;9.90;;;17.20;99.90;;;;;;5099576;28;20189;-83
2021/08/11 05:20:45;;;;;;;17.30;8.70;;;17.30;99.90;;;;;;5094671;28;20217;-84
2021/08/11 05:23:10;;;;;;;15.47;9.13;;;17.70;99.90;;;;;;5096703;28;20262;-84
2021/08/11 05:25:36;;;;;;;17.00;7.83;;;18.60;99.90;;;;;;5100730;28;20220;-84
2021/08/11 05:28:03;;;;;;;13.70;7.70;;;20.10;99.90;;;;;;5093451;28;20202;-84
2021/08/11 05:30:29;;;;;;;13.77;7.03;;;21.40;99.90;;;;;;5094177;28;20598;-84
2021/08/11 05:32:55;;;;;;;12.67;7.73;;;22.10;99.90;;;;;;5097090;28;20176;-84
2021/08/11 05:35:21;;;;;;;14.17;6.73;;;22.40;99.90;;;;;;5096539;28;20671;-84
2021/08/11 05:37:46;;;;;;;14.73;6.30;;;22.80;99.90;;;;;;5091593;28;20579;-84
2021/08/11 05:40:14;;;;;;;16.27;7.00;;;23.30;99.90;;;;;;5099933;28;20251;-84
2021/08/11 05:42:40;;;;;;;12.40;6.40;;;23.50;99.90;;;;;;5093739;28;20203;-84
2021/08/11 05:45:05;;;;;;;12.87;6.70;;;23.80;99.90;;;;;;5090070;28;20183;-84
2021/08/11 05:47:31;;;;;;;13.10;6.50;;;24.60;99.90;;;;;;5084754;28;20254;-84
2021/08/11 05:49:57;;;;;;;11.93;6.40;;;25.40;99.90;;;;;;5093741;28;20185;-85
2021/08/11 05:52:22;;;;;;;9.77;5.60;;;26.00;99.90;;;;;;5093194;28;20201;-83
2021/08/11 05:54:49;;;;;;;11.67;6.53;;;26.40;99.90;;;;;;5089752;28;20269;-84
2021/08/11 05:57:16;;;;;;;10.97;6.23;;;26.70;99.90;;;;;;5091619;28;20186;-84
2021/08/11 05:59:42;;;;;;;15.47;6.97;;;27.00;99.90;;;;;;5107663;28;20593;-83
2021/08/11 06:02:07;;;;;;;13.67;8.17;;;27.10;99.90;;;;;;5093064;28;20183;-84
2021/08/11 06:04:33;;;;;;;12.63;7.23;;;27.20;99.90;;;;;;5090843;28;20201;-83
2021/08/11 06:06:59;;;;;;;13.30;7.03;;;27.50;99.90;;;;;;5080092;28;20193;-82
2021/08/11 06:09:25;;;;;;;13.97;7.67;;;28.10;99.90;;;;;;5089427;28;20190;-84
2021/08/11 06:11:51;;;;;;;14.13;7.70;;;28.50;99.90;;;;;;5096413;28;20185;-84
2021/08/11 06:14:17;;;;;;;14.57;7.73;;;28.60;99.90;;;;;;5091167;28;20186;-84
2021/08/11 06:16:42;;;;;;;14.13;7.28;;;29.10;99.90;;;;;;5068169;28;20216;-84
2021/08/11 06:19:08;;;;;;;13.80;7.28;;;29.30;99.90;;;;;;5097027;28;20185;-84
2021/08/11 06:21:34;;;;;;;14.43;7.30;;;29.30;99.90;;;;;;5089729;28;20727;-84
2021/08/11 06:24:00;;;;;;;12.38;6.65;;;29.30;99.90;;;;;;5076721;28;20178;-84
2021/08/11 06:26:25;;;;;;;14.32;7.57;;;29.40;99.90;;;;;;5108373;28;20183;-84
2021/08/11 06:28:51;;;;;;;14.90;7.32;;;29.00;99.90;;;;;;5076838;28;20174;-84
2021/08/11 06:31:18;;;;;;;14.77;6.47;;;29.20;99.90;;;;;;5073511;28;20166;-85
2021/08/11 06:33:44;;;;;;;13.90;7.18;;;29.50;99.90;;;;;;5070635;28;20175;-84
2021/08/11 06:36:12;;;;;;;12.65;7.10;;;29.20;99.90;;;;;;5096183;28;20257;-83
2021/08/11 06:38:38;;;;;;;14.05;7.10;;;29.20;99.90;;;;;;5076144;28;20178;-84
2021/08/11 06:41:04;;;;;;;11.98;6.55;;;29.30;99.90;;;;;;5076589;28;20278;-84
2021/08/11 06:43:30;;;;;;;15.13;6.80;;;29.30;99.90;;;;;;5079351;28;20194;-84
2021/08/11 06:45:57;;;;;;;14.35;6.55;;;29.80;99.90;;;;;;5096463;28;20555;-84
2021/08/11 06:48:23;;;;;;;13.20;6.32;;;29.80;99.90;;;;;;5088637;28;20170;-84
2021/08/11 06:50:49;;;;;;;12.18;6.30;;;29.90;99.90;;;;;;5073859;28;20186;-84
2021/08/11 06:53:15;;;;;;;14.80;5.97;;;29.70;99.90;;;;;;5089720;28;20182;-84
2021/08/11 06:55:41;;;;;;;12.43;6.03;;;30.10;99.90;;;;;;5071630;28;20657;-84
2021/08/11 06:58:07;;;;;;;12.43;5.82;;;30.50;99.90;;;;;;5090828;28;20206;-84
2021/08/11 07:00:33;;;;;;;13.93;5.97;;;31.00;99.90;;;;;;5073786;28;20183;-84
2021/08/11 07:02:59;;;;;;;11.93;5.50;;;30.30;99.90;;;;;;5083712;28;20213;-84
2021/08/11 07:05:25;;;;;;;11.23;5.47;;;31.00;99.90;;;;;;5092937;28;20251;-85
2021/08/11 07:07:51;;;;;;;13.00;5.40;;;32.00;99.90;;;;;;5092252;28;20166;-85
2021/08/11 07:10:17;;;;;;;12.55;4.95;;;32.50;99.90;;;;;;5093126;28;20764;-84
2021/08/11 07:12:43;;;;;;;12.18;4.90;;;33.40;98.20;;;;;;5087010;28;20546;-85
2021/08/11 07:15:11;;;;;;;10.25;4.53;;;33.80;96.90;;;;;;5073323;28;20251;-84
2021/08/11 07:17:36;;;;;;;9.32;4.22;;;34.00;94.80;;;;;;5076068;28;20191;-84
2021/08/11 07:20:10;;;;;;;9.57;4.25;;;34.00;93.60;;;;;;5092148;28;20178;-81
2021/08/11 07:22:36;;;;;;;8.98;3.88;;;34.70;91.70;;;;;;5088399;28;20221;-82
2021/08/11 07:25:02;;;;;;;9.52;4.03;;;34.70;90.20;;;;;;5093977;28;20178;-84
2021/08/11 07:27:28;;;;;;;9.32;3.90;;;34.60;90.00;;;;;;5091323;28;20670;-84
2021/08/11 07:29:54;;;;;;;10.20;4.05;;;35.50;85.80;;;;;;5073570;28;20181;-84
2021/08/11 07:32:19;;;;;;;8.05;3.90;;;36.20;84.40;;;;;;5075400;28;20216;-84
2021/08/11 07:34:45;;;;;;;9.57;4.38;;;36.30;81.40;;;;;;5075455;28;20201;-84
2021/08/11 07:37:11;;;;;;;10.70;3.58;;;36.40;77.30;;;;;;5075887;28;20174;-83
2021/08/11 07:39:36;;;;;;;31.10;7.78;;;36.30;79.20;;;;;;5079807;28;20559;-84
2021/08/11 07:42:02;;;;;;;9.82;3.97;;;36.60;74.80;;;;;;5077258;28;20214;-83
2021/08/11 07:44:28;;;;;;;8.13;3.47;;;36.60;73.70;;;;;;5096573;28;20185;-83
2021/08/11 07:46:54;;;;;;;7.43;3.55;;;36.80;72.60;;;;;;5072756;28;20626;-84
2021/08/11 07:49:19;;;;;;;8.40;3.28;;;36.80;70.90;;;;;;5078867;28;20190;-84
2021/08/11 07:51:45;;;;;;;9.02;3.20;;;36.70;70.60;;;;;;5089338;28;20202;-84
2021/08/11 07:54:11;;;;;;;10.50;3.00;;;36.30;69.90;;;;;;5088172;28;20178;-84
2021/08/11 07:56:37;;;;;;;8.88;2.65;;;36.50;69.60;;;;;;5108673;28;20668;-83
2021/08/11 07:59:02;;;;;;;5.68;2.90;;;36.70;68.90;;;;;;5079613;28;20170;-83
2021/08/11 08:01:28;;;;;;;7.80;2.83;;;37.20;65.80;;;;;;5077410;28;20208;-84
2021/08/11 08:03:54;;;;;;;9.02;3.83;;;37.90;64.20;;;;;;5075893;28;20193;-83
2021/08/11 08:06:19;;;;;;;8.23;3.67;;;38.30;64.40;;;;;;5074108;28;20288;-83
2021/08/11 08:08:45;;;;;;;9.57;3.80;;;39.10;63.50;;;;;;5072791;28;20549;-84
2021/08/11 08:11:11;;;;;;;9.27;3.45;;;39.70;61.60;;;;;;5090109;28;20181;-84
2021/08/11 08:13:37;;;;;;;7.82;2.85;;;39.70;61.20;;;;;;5095982;28;20523;-84
2021/08/11 08:16:02;;;;;;;7.78;2.72;;;39.20;58.10;;;;;;5079018;28;20178;-83
2021/08/11 08:18:28;;;;;;;8.68;3.40;;;39.20;57.30;;;;;;5092627;28;20218;-84
2021/08/11 08:20:55;;;;;;;7.82;3.38;;;39.50;56.40;;;;;;5071149;28;20254;-85
2021/08/11 08:23:22;;;;;;;9.05;3.40;;;39.20;56.70;;;;;;5080272;28;20227;-84
2021/08/11 08:25:48;;;;;;;11.77;3.97;;;39.00;56.70;;;;;;5092245;28;20171;-82
2021/08/11 08:28:14;;;;;;;7.57;3.38;;;39.00;57.40;;;;;;5065302;28;20595;-82
2021/08/11 08:30:42;;;;;;;7.57;3.40;;;39.10;58.60;;;;;;5077330;28;20209;-84
2021/08/11 08:33:08;;;;;;;8.32;3.08;;;38.90;56.40;;;;;;5091462;28;20703;-83
2021/08/11 08:35:33;;;;;;;5.60;2.50;;;38.60;55.40;;;;;;5082070;28;20182;-82
2021/08/11 08:37:59;;;;;;;12.15;3.17;;;38.30;56.90;;;;;;5089901;28;20235;-83
2021/08/11 08:40:34;;;;;;;15.88;4.32;;;38.20;55.40;;;;;;5112770;28;20182;-83
2021/08/11 08:43:01;;;;;;;9.68;3.28;;;38.10;56.60;;;;;;5082873;28;20300;-83
2021/08/11 08:45:26;;;;;;;7.53;3.08;;;37.90;56.40;;;;;;5093955;28;20530;-82
2021/08/11 08:47:53;;;;;;;9.32;3.40;;;37.40;57.60;;;;;;5077222;28;20187;-82
2021/08/11 08:50:19;;;;;;;8.73;3.20;;;36.60;57.30;;;;;;5088066;28;20216;-83
2021/08/11 08:52:46;;;;;;;6.30;2.92;;;36.70;58.80;;;;;;5080783;28;20312;-82
2021/08/11 08:55:12;;;;;;;7.63;2.80;;;36.50;57.80;;;;;;5075316;28;20730;-82
2021/08/11 08:57:38;;;;;;;7.22;2.88;;;37.00;58.70;;;;;;5084144;28;20635;-83
2021/08/11 09:00:06;;;;;;;6.50;2.83;;;37.10;57.20;;;;;;5089488;28;20198;-82
2021/08/11 09:02:32;;;;;;;9.63;3.05;;;37.90;56.90;;;;;;5091311;28;20258;-83
2021/08/11 09:04:58;;;;;;;6.30;2.83;;;38.10;55.50;;;;;;5090041;28;20178;-83
2021/08/11 09:07:23;;;;;;;8.05;2.83;;;37.70;57.00;;;;;;5090022;28;20302;-83
2021/08/11 09:09:49;;;;;;;6.30;3.05;;;38.10;57.20;;;;;;5090312;28;20175;-83
2021/08/11 09:12:17;;;;;;;9.52;3.08;;;38.40;55.90;;;;;;5079704;28;20185;-82
2021/08/11 09:14:46;;;;;;;8.18;3.13;;;38.40;56.50;;;;;;5076846;28;20202;-83
2021/08/11 09:17:31;;;;;;;6.38;2.95;;;38.20;55.90;;;;;;5108885;28;20273;-83
2021/08/11 09:19:58;;;;;;;10.25;3.63;;;37.70;57.20;;;;;;5103546;28;20198;-82
2021/08/11 09:22:23;;;;;;;8.77;3.58;;;37.70;56.60;;;;;;5076787;28;20719;-83
2021/08/11 09:25:05;;;;;;;8.52;3.25;;;37.50;57.30;;;;;;5092584;28;20186;-82
2021/08/11 09:27:33;;;;;;;9.55;3.30;;;37.00;58.40;;;;;;5087653;28;20620;-83
2021/08/11 09:30:20;;;;;;;8.55;3.20;;;36.50;59.00;;;;;;5093089;28;20190;-83
2021/08/11 09:32:58;;;;;;;6.05;3.35;;;35.30;60.20;;;;;;5083296;28;20194;-83
2021/08/11 09:35:38;;;;;;;9.27;4.45;;;34.50;62.10;;;;;;5080667;28;20174;-84
2021/08/11 09:38:12;;;;;;;10.68;3.90;;;33.10;63.50;;;;;;5109206;28;20563;-83
2021/08/11 09:40:39;;;;;;;8.93;3.85;;;31.50;67.00;;;;;;5091432;28;20573;-84
2021/08/11 09:43:08;;;;;;;10.35;3.95;;;31.30;68.70;;;;;;5097647;28;20202;-84
2021/08/11 09:45:48;;;;;;;10.40;4.10;;;30.90;71.10;;;;;;5073836;28;20629;-83
2021/08/11 09:48:16;;;;;;;8.45;3.80;;;31.60;70.50;;;;;;5077478;28;20539;-83
2021/08/11 09:51:00;;;;;;;8.80;3.88;;;31.90;70.10;;;;;;5093144;28;20221;-84
2021/08/11 09:53:29;;;;;;;11.23;3.28;;;33.50;65.10;;;;;;5096993;28;20246;-83
2021/08/11 09:56:04;;;;;;;8.75;3.40;;;34.60;64.30;;;;;;5105032;28;20205;-83
2021/08/11 09:58:32;;;;;;;10.52;3.67;;;36.20;62.10;;;;;;5094440;28;20541;-84
2021/08/11 10:00:58;;;;;;;9.15;3.30;;;36.90;59.30;;;;;;5090578;28;20558;-83
2021/08/11 10:03:24;;;;;;;6.72;2.97;;;37.10;59.20;;;;;;5092380;28;20194;-82
2021/08/11 10:05:52;;;;;;;6.38;3.10;;;37.20;58.70;;;;;;5080042;28;20184;-84
2021/08/11 10:08:29;;;;;;;11.32;3.20;;;37.30;58.70;;;;;;5076291;28;20204;-83
2021/08/11 10:10:55;;;;;;;8.55;3.20;;;37.50;59.00;;;;;;5096523;28;20179;-84
2021/08/11 10:13:22;;;;;;;7.00;2.90;;;37.50;58.60;;;;;;5079926;28;20183;-83
2021/08/11 10:15:49;;;;;;;7.30;3.28;;;37.30;58.70;;;;;;5073433;28;20214;-84
2021/08/11 10:18:23;;;;;;;9.45;3.55;;;36.90;58.80;;;;;;5079116;28;20232;-84
2021/08/11 10:20:51;;;;;;;6.40;3.28;;;37.00;59.40;;;;;;5091693;28;20268;-85
2021/08/11 10:23:19;;;;;;;8.60;3.60;;;36.80;59.50;;;;;;5096253;28;20206;-83
2021/08/11 10:25:46;;;;;;;8.57;3.10;;;36.10;60.90;;;;;;5090424;28;20183;-83
2021/08/11 10:28:12;;;;;;;8.25;3.45;;;36.00;58.80;;;;;;5079931;28;20174;-83
2021/08/11 10:30:38;;;;;;;9.05;3.30;;;35.80;59.80;;;;;;5078498;28;20235;-83
2021/08/11 10:33:06;;;;;;;8.25;3.58;;;36.00;60.90;;;;;;5074029;28;20646;-83
2021/08/11 10:35:32;;;;;;;8.85;3.35;;;35.60;61.90;;;;;;5075243;28;20747;-84
2021/08/11 10:37:59;;;;;;;7.43;3.22;;;34.40;63.40;;;;;;5080742;28;20182;-83
2021/08/11 10:40:26;;;;;;;7.93;3.50;;;32.10;65.00;;;;;;5082777;28;20231;-84
2021/08/11 10:42:56;;;;;;;6.97;3.60;;;31.60;68.20;;;;;;5073593;28;20543;-83
2021/08/11 10:45:25;;;;;;;8.43;3.55;;;32.30;68.60;;;;;;5091700;28;20398;-81
2021/08/11 10:47:51;;;;;;;7.85;3.30;;;32.60;66.20;;;;;;5091840;28;20179;-80
2021/08/11 10:50:17;;;;;;;10.52;3.33;;;32.10;65.80;;;;;;5089587;28;20191;-81
2021/08/11 10:52:43;;;;;;;8.75;3.30;;;31.60;68.80;;;;;;5093774;28;20179;-81
2021/08/11 10:55:09;;;;;;;7.03;3.22;;;31.50;69.50;;;;;;5085235;28;20198;-82
2021/08/11 10:57:35;;;;;;;10.77;3.00;;;31.80;68.50;;;;;;5078824;28;20181;-81
2021/08/11 11:00:02;;;;;;;9.98;3.40;;;32.00;70.00;;;;;;5076487;28;20174;-81
2021/08/11 11:02:46;;;;;;;6.45;2.90;;;32.30;69.30;;;;;;5077429;28;20214;-81
2021/08/11 11:05:21;;;;;;;9.00;3.17;;;32.00;67.30;;;;;;5087517;28;20187;-80
2021/08/11 11:08:13;;;;;;;6.32;2.88;;;31.90;69.40;;;;;;5076077;28;20268;-80
2021/08/11 11:10:40;;;;;;;9.15;3.03;;;32.10;68.80;;;;;;5070001;28;20269;-82
2021/08/11 11:13:26;;;;;;;7.13;3.05;;;32.90;67.60;;;;;;5076089;28;20269;-81
2021/08/11 11:15:56;;;;;;;10.00;2.97;;;32.60;69.40;;;;;;5093320;28;20205;-82
2021/08/11 11:18:22;;;;;;;7.70;2.72;;;32.40;67.20;;;;;;5077957;28;20602;-81
2021/08/11 11:21:11;;;;;;;7.25;2.88;;;33.00;69.20;;;;;;5093259;28;20384;-82
2021/08/11 11:23:44;;;;;;;7.15;3.10;;;33.80;67.60;;;;;;5093932;28;20661;-82
2021/08/11 11:26:33;;;;;;;9.75;3.30;;;33.70;65.40;;;;;;5083218;28;20264;-84
2021/08/11 11:29:09;;;;;;;7.65;3.22;;;33.10;67.00;;;;;;5097052;28;20204;-82
2021/08/11 11:31:43;;;;;;;8.48;3.50;;;33.10;67.90;;;;;;5087592;28;20178;-81
2021/08/11 11:34:29;;;;;;;6.35;2.50;;;33.50;66.30;;;;;;5072200;28;20182;-82
2021/08/11 11:36:55;;;;;;;7.18;3.20;;;34.80;65.60;;;;;;5091374;28;20193;-82
2021/08/11 11:39:26;;;;;;;7.05;2.95;;;34.10;63.90;;;;;;5066361;28;20185;-82
2021/08/11 11:42:19;;;;;;;6.63;3.35;;;33.20;66.10;;;;;;5094881;28;20207;-83
2021/08/11 11:44:48;;;;;;;9.57;3.42;;;32.00;65.50;;;;;;5075500;28;20690;-81
2021/08/11 11:47:16;;;;;;;7.97;3.00;;;31.40;69.50;;;;;;5077922;28;20232;-82
2021/08/11 11:49:42;;;;;;;6.63;3.15;;;31.60;69.40;;;;;;5090048;28;20263;-81
2021/08/11 11:52:17;;;;;;;8.07;3.00;;;31.60;67.90;;;;;;5067086;28;20270;-82
2021/08/11 11:54:52;;;;;;;9.68;2.97;;;31.90;69.20;;;;;;5092301;28;20177;-81
2021/08/11 11:57:18;;;;;;;7.32;2.70;;;30.20;72.90;;;;;;5083431;28;20181;-82
2021/08/11 11:59:45;;;;;;;8.82;3.35;;;30.70;73.20;;;;;;5075965;28;21825;-83
2021/08/11 12:02:18;;;;;;;7.25;3.60;;;29.60;73.60;;;;;;5071844;28;20795;-81
2021/08/11 12:05:05;;;;;;;6.93;3.10;;;28.20;76.90;;;;;;5075518;28;20209;-86
2021/08/11 12:07:33;;;;;;;10.05;3.28;;;29.00;77.40;;;;;;5073938;28;20174;-82
2021/08/11 12:10:03;;;;;;;6.38;3.00;;;29.30;74.10;;;;;;5113972;28;20726;-82
2021/08/11 12:12:30;;;;;;;7.03;2.90;;;29.10;77.40;;;;;;5092921;28;20245;-82
2021/08/11 12:15:20;;;;;;;7.53;3.22;;;29.90;74.10;;;;;;5092641;28;20182;-81
2021/08/11 12:17:47;;;;;;;11.85;3.30;;;30.80;73.00;;;;;;5078009;28;20181;-81
2021/08/11 12:20:35;;;;;;;6.72;2.60;;;31.50;70.10;;;;;;5079992;28;20185;-83
2021/08/11 12:23:17;;;;;;;6.63;2.60;;;31.30;73.50;;;;;;5078029;28;20226;-82
2021/08/11 12:25:43;;;;;;;6.93;2.80;;;31.10;69.80;;;;;;5089429;28;20179;-82
2021/08/11 12:28:10;;;;;;;5.82;2.92;;;31.70;70.70;;;;;;5089313;28;20166;-82
2021/08/11 12:30:38;;;;;;;9.85;2.78;;;31.30;67.90;;;;;;5094622;28;20183;-82
2021/08/11 12:33:05;;;;;;;9.40;3.17;;;30.30;70.50;;;;;;5093766;28;20213;-82
2021/08/11 12:35:31;;;;;;;9.43;3.40;;;30.00;70.80;;;;;;5077570;28;20285;-83
2021/08/11 12:37:57;;;;;;;8.30;3.15;;;29.70;75.00;;;;;;5079195;28;20182;-82
2021/08/11 12:40:37;;;;;;;6.28;3.00;;;29.30;74.00;;;;;;5097255;28;20198;-83
2021/08/11 12:43:05;;;;;;;9.38;2.80;;;29.20;75.70;;;;;;5078336;28;20210;-82
2021/08/11 12:45:52;;;;;;;8.65;3.05;;;29.20;75.60;;;;;;5087127;28;20177;-82
2021/08/11 12:48:29;;;;;;;8.07;2.85;;;29.10;75.00;;;;;;5109919;28;20203;-83